»·PEaware :: FDX5920 KSFO-KONT

FDX5920 :: KSFO-KONT

FLIGHT INFORMATION

Flight Status: Arrived
Operator:
Federal Express
More flights by this operator :: More flights under this callsign
Pilot: Josh T. (20631)
Aircraft: Unknown
(B77F)
More flights by this aircraft type
Origin: KSFO San Francisco Intl
United States
Destination: KONT Ontario Intl
United States
More flights between these airports :: More routes between these airports
Route: +DODGR GLRNO2
File this flight plan on PilotEdge
Remarks:
Altitude:
(Current/Filed)
37,000ft
Speed:
(Current/Filed)
484kts
Departed: 12-Jun-20 07:45 PM
Arrived: 12-Jun-20 08:39 PM
Distance/Time
Traveled:
315nm/0:54
Distance/Time
To Go:
Arrived

Flight Plot

Page will automatically refresh every two minutes.

Flight plan parsing failed; only flown route is shown


Map Options




Map Legend


Flown Route
Filed Route
Departure Airport
Arrival Airport
Navaid (VOR, NDB)
Fix

Horizontal Profiles

Position Reports

Time Latitude Longitude Heading Altitude Ground
Speed
12-Jun-20 18:49 37.637061 -122.388471 60 26ft 0kts
12-Jun-20 18:50 37.637061 -122.388471 60 26ft 0kts
12-Jun-20 18:50 37.637061 -122.388471 60 26ft 0kts
12-Jun-20 18:52 37.637061 -122.388471 60 26ft 0kts
12-Jun-20 18:53 37.637061 -122.388471 60 26ft 0kts
12-Jun-20 18:53 37.637061 -122.388471 60 26ft 0kts
12-Jun-20 18:54 37.637061 -122.388471 60 26ft 0kts
12-Jun-20 18:55 37.637061 -122.388471 60 26ft 0kts
12-Jun-20 18:56 37.637061 -122.388471 60 26ft 0kts
12-Jun-20 18:57 37.637061 -122.388471 60 26ft 0kts
12-Jun-20 18:58 37.637061 -122.388471 60 26ft 0kts
12-Jun-20 18:59 37.637061 -122.388471 60 26ft 0kts
12-Jun-20 19:00 37.637061 -122.388471 60 26ft 0kts
12-Jun-20 19:01 37.637061 -122.388471 60 26ft 0kts
12-Jun-20 19:02 37.637061 -122.388471 60 26ft 0kts
12-Jun-20 19:03 37.637061 -122.388471 60 26ft 0kts
12-Jun-20 19:04 37.637061 -122.388471 60 26ft 0kts
12-Jun-20 19:05 37.637061 -122.388471 60 26ft 0kts
12-Jun-20 19:06 37.637061 -122.388471 60 26ft 0kts
12-Jun-20 19:07 37.637061 -122.388471 60 26ft 0kts
12-Jun-20 19:08 37.637061 -122.388471 60 26ft 0kts
12-Jun-20 19:09 37.637061 -122.388471 60 26ft 0kts
12-Jun-20 19:10 37.637061 -122.388471 60 26ft 0kts
12-Jun-20 19:11 37.637061 -122.388471 60 26ft 0kts
12-Jun-20 19:12 37.637061 -122.388471 60 26ft 0kts
12-Jun-20 19:13 37.637061 -122.388471 60 26ft 0kts
12-Jun-20 19:14 37.637061 -122.388471 60 26ft 0kts
12-Jun-20 19:15 37.637061 -122.388471 60 26ft 0kts
12-Jun-20 19:16 37.637061 -122.388471 60 26ft 0kts
12-Jun-20 19:17 37.637061 -122.388471 60 26ft 0kts
12-Jun-20 19:18 37.637061 -122.388471 60 26ft 0kts
12-Jun-20 19:19 37.637061 -122.388471 60 26ft 0kts
12-Jun-20 19:20 37.637061 -122.388471 60 26ft 0kts
12-Jun-20 19:21 37.637061 -122.388471 60 26ft 0kts
12-Jun-20 19:22 37.637022 -122.389169 124 26ft 2kts
12-Jun-20 19:23 37.637358 -122.389557 148 26ft 0kts
12-Jun-20 19:24 37.637358 -122.389557 148 26ft 0kts
12-Jun-20 19:25 37.637358 -122.389557 148 26ft 0kts
12-Jun-20 19:26 37.637358 -122.389557 148 26ft 0kts
12-Jun-20 19:27 37.636971 -122.389262 148 26ft 5kts
12-Jun-20 19:28 37.636100 -122.388600 149 26ft 0kts
12-Jun-20 19:29 37.635709 -122.388283 146 26ft 6kts
12-Jun-20 19:30 37.634412 -122.389175 253 26ft 5kts
12-Jun-20 19:31 37.633653 -122.391404 233 26ft 8kts
12-Jun-20 19:32 37.631808 -122.391588 238 26ft 6kts
12-Jun-20 19:33 37.630748 -122.392489 157 26ft 5kts
12-Jun-20 19:34 37.629438 -122.391726 115 26ft 1kts
12-Jun-20 19:35 37.628880 -122.390058 118 26ft 6kts
12-Jun-20 19:36 37.627564 -122.386914 117 26ft 17kts
12-Jun-20 19:37 37.625338 -122.381574 117 26ft 17kts
12-Jun-20 19:38 37.623099 -122.376227 117 26ft 17kts
12-Jun-20 19:39 37.620879 -122.370883 117 26ft 17kts
12-Jun-20 19:40 37.618625 -122.365516 117 26ft 17kts
12-Jun-20 19:41 37.616400 -122.360198 117 26ft 17kts
12-Jun-20 19:42 37.614724 -122.356690 157 26ft 6kts
12-Jun-20 19:43 37.613799 -122.357702 298 26ft 4kts
12-Jun-20 19:44 37.626158 -122.386597 297 752ft 170kts
12-Jun-20 19:45 37.649513 -122.441046 294 3006ft 207kts
12-Jun-20 19:46 37.661701 -122.513439 242 3007ft 241kts
12-Jun-20 19:47 37.595686 -122.522293 163 3241ft 274kts
12-Jun-20 19:48 37.522618 -122.487823 165 6852ft 286kts
12-Jun-20 19:49 37.457428 -122.424893 133 10138ft 311kts
12-Jun-20 19:50 37.397408 -122.331816 130 12301ft 379kts
12-Jun-20 19:51 37.326123 -122.221483 130 15164ft 424kts
12-Jun-20 19:52 37.249566 -122.103179 130 18315ft 450kts
12-Jun-20 19:53 37.167791 -121.976651 130 21024ft 476kts
12-Jun-20 19:54 37.081505 -121.844369 131 23486ft 504kts
12-Jun-20 19:55 36.991037 -121.706285 131 26127ft 520kts
12-Jun-20 19:56 36.897625 -121.564307 131 28510ft 536kts
12-Jun-20 19:57 36.802052 -121.419648 131 31209ft 534kts
12-Jun-20 19:58 36.708567 -121.278754 133 34042ft 519kts
12-Jun-20 19:59 36.616970 -121.140810 134 36091ft 513kts
12-Jun-20 20:00 36.525838 -121.004972 134 37138ft 511kts
12-Jun-20 20:01 36.435261 -120.869785 134 37130ft 509kts
12-Jun-20 20:02 36.344637 -120.734759 135 37121ft 508kts
12-Jun-20 20:03 36.254221 -120.600324 135 37103ft 508kts
12-Jun-20 20:04 36.164029 -120.465815 135 37093ft 506kts
12-Jun-20 20:05 36.073554 -120.332102 136 37085ft 507kts
12-Jun-20 20:06 35.983325 -120.198824 136 37094ft 506kts
12-Jun-20 20:07 35.892451 -120.065962 136 37093ft 506kts
12-Jun-20 20:08 35.813988 -119.919545 121 37087ft 520kts
12-Jun-20 20:09 35.751180 -119.759393 121 37078ft 518kts
12-Jun-20 20:10 35.687471 -119.600376 121 37070ft 517kts
12-Jun-20 20:11 35.624694 -119.442104 120 37063ft 517kts
12-Jun-20 20:12 35.564953 -119.282692 129 37063ft 503kts
12-Jun-20 20:13 35.474022 -119.157224 143 37047ft 486kts
12-Jun-20 20:14 35.377383 -119.042007 143 36620ft 481kts
12-Jun-20 20:15 35.282097 -118.928562 143 34306ft 477kts
12-Jun-20 20:16 35.187628 -118.816433 144 32430ft 466kts
12-Jun-20 20:17 35.096041 -118.708076 144 30725ft 452kts
12-Jun-20 20:18 35.006837 -118.602780 143 28948ft 441kts
12-Jun-20 20:19 34.919823 -118.499635 144 27096ft 430kts
12-Jun-20 20:20 34.839675 -118.391794 129 25039ft 440kts
12-Jun-20 20:21 34.779422 -118.262997 124 23256ft 433kts
12-Jun-20 20:22 34.723142 -118.134957 124 21468ft 423kts
12-Jun-20 20:23 34.668282 -118.010672 123 19770ft 414kts
12-Jun-20 20:24 34.615376 -117.890191 123 17593ft 394kts
12-Jun-20 20:25 34.565723 -117.778486 123 15619ft 368kts
12-Jun-20 20:26 34.515779 -117.666459 123 14321ft 371kts
12-Jun-20 20:27 34.473470 -117.555717 116 13073ft 354kts
12-Jun-20 20:28 34.425049 -117.467492 148 11569ft 288kts
12-Jun-20 20:29 34.359864 -117.417028 154 10284ft 281kts
12-Jun-20 20:30 34.290899 -117.367678 152 8945ft 288kts
12-Jun-20 20:31 34.221116 -117.323434 164 7702ft 276kts
12-Jun-20 20:32 34.148643 -117.302582 183 6393ft 262kts
12-Jun-20 20:33 34.086824 -117.342886 214 4997ft 250kts
12-Jun-20 20:35 34.052523 -117.406219 274 3743ft 238kts
12-Jun-20 20:36 34.055010 -117.475063 268 2816ft 161kts
12-Jun-20 20:37 34.054659 -117.527908 266 1649ft 151kts
12-Jun-20 20:38 34.054795 -117.576260 268 1081ft 144kts
12-Jun-20 20:39 34.054813 -117.601486 252 957ft 8kts
12-Jun-20 20:40 34.053820 -117.603832 269 957ft 7kts
12-Jun-20 20:41 34.053828 -117.606382 271 957ft 7kts
12-Jun-20 20:42 34.053843 -117.608989 270 957ft 11kts
12-Jun-20 20:43 34.053833 -117.613732 257 957ft 3kts
12-Jun-20 20:44 34.052945 -117.614071 180 957ft 0kts

Navigation Log

Ident Type
Flight plan parsing failed, navigation log unavailable